Saint Germain, Wisconsin
Current Conditions -  °F | °C
As of 3:50 AM on Thursday 29 Jan 2015 (Local Time) from KEGV Reporting Station
Haze Haze  
Wind Chill: 25°   Ceiling: 400
Heat Index: 25°   Visibility: 1.5mi
Dew Point: 23°   Wind: 0mph
Humidity: 93%   Direction: NA
Pressure: 29.74"   Gusts: NA
Location:  45.9°N, 89.49°W
Report Text: KEGV 290950Z AUTO 00000KT 1 1/2SM BR OVC004 M04/M05 A2974 RMK AO2 T10401050
Loading
Personal Weather Stations






























Interactive Weather Map New forecast layout! Learn more

10-Day Weather Forecast

Advertisements
Track Severe Weather on mobile